createdAt,value
2023-10-07T00:02:01.685Z,55.18
2023-10-07T00:04:30.560Z,55.81
2023-10-07T00:06:57.902Z,55.59
2023-10-07T00:09:25.373Z,55.48
2023-10-07T00:11:53.067Z,55.16
2023-10-07T00:14:20.585Z,55.14
2023-10-07T00:16:48.110Z,55.20
2023-10-07T00:19:15.599Z,55.25
2023-10-07T00:21:43.271Z,55.53
2023-10-07T00:24:10.771Z,55.16
2023-10-07T00:26:38.399Z,55.02
2023-10-07T00:29:05.889Z,55.01
2023-10-07T00:31:33.346Z,55.23
2023-10-07T00:34:02.096Z,55.17
2023-10-07T00:36:30.521Z,55.17
2023-10-07T00:38:58.216Z,55.79
2023-10-07T00:41:25.575Z,55.61
2023-10-07T00:43:52.912Z,55.47
2023-10-07T00:46:20.954Z,55.45
2023-10-07T00:48:49.282Z,55.25
2023-10-07T00:51:17.446Z,55.32
2023-10-07T00:53:45.723Z,55.53
2023-10-07T00:56:14.875Z,55.51
2023-10-07T00:58:43.714Z,55.57
2023-10-07T01:01:11.382Z,55.51
2023-10-07T01:03:39.003Z,55.66
2023-10-07T01:06:06.739Z,55.81
2023-10-07T01:08:34.233Z,55.66
2023-10-07T01:11:02.875Z,55.69
2023-10-07T01:13:30.689Z,55.87
2023-10-07T01:15:58.716Z,55.60
2023-10-07T01:18:26.169Z,55.82
2023-10-07T01:20:53.580Z,55.65
2023-10-07T01:23:21.700Z,55.55
2023-10-07T01:25:49.222Z,55.68
2023-10-07T01:28:19.168Z,55.70
2023-10-07T01:30:50.623Z,55.66
2023-10-07T01:33:18.175Z,55.50
2023-10-07T01:35:45.510Z,55.66
2023-10-07T01:38:13.025Z,55.71
2023-10-07T01:40:40.578Z,56.05
2023-10-07T01:43:08.021Z,55.64
2023-10-07T01:45:38.264Z,55.90
2023-10-07T01:48:06.501Z,56.18
2023-10-07T01:50:45.762Z,56.37
2023-10-07T01:53:14.052Z,56.68
2023-10-07T01:55:43.244Z,57.07
2023-10-07T01:58:14.538Z,57.20
2023-10-07T02:00:46.901Z,57.12
2023-10-07T02:03:17.207Z,56.77
2023-10-07T02:05:45.726Z,56.42
2023-10-07T02:08:13.626Z,56.37
2023-10-07T02:10:42.442Z,56.63
2023-10-07T02:13:14.109Z,56.33
2023-10-07T02:15:44.592Z,56.17
2023-10-07T02:18:12.879Z,56.35
2023-10-07T02:20:40.334Z,56.33
2023-10-07T02:23:08.033Z,56.50
2023-10-07T02:25:35.495Z,56.13
2023-10-07T02:28:02.845Z,56.24
2023-10-07T02:30:30.277Z,56.21
2023-10-07T02:32:57.653Z,56.33
2023-10-07T02:35:25.195Z,56.44
2023-10-07T02:37:53.401Z,56.35
2023-10-07T02:40:20.860Z,56.35
2023-10-07T02:42:48.383Z,56.44
2023-10-07T02:45:15.855Z,56.32
2023-10-07T02:47:43.288Z,56.26
2023-10-07T02:50:11.073Z,56.38
2023-10-07T02:52:39.062Z,56.31
2023-10-07T02:55:08.683Z,56.34
2023-10-07T02:57:36.559Z,56.26
2023-10-07T03:04:39.612Z,56.22
2023-10-07T03:07:07.739Z,56.34
2023-10-07T03:09:35.503Z,56.65
2023-10-07T03:12:03.240Z,56.61
2023-10-07T03:14:30.945Z,56.80
2023-10-07T03:16:58.695Z,56.81
2023-10-07T03:19:27.034Z,56.54
2023-10-07T03:21:54.975Z,56.21
2023-10-07T03:24:23.939Z,56.89
2023-10-07T03:26:52.070Z,56.52
2023-10-07T03:29:19.808Z,56.34
2023-10-07T03:31:47.697Z,56.27
2023-10-07T03:34:16.586Z,56.32
2023-10-07T03:36:44.373Z,56.66
2023-10-07T03:39:14.001Z,56.78
2023-10-07T03:41:42.440Z,56.52
2023-10-07T03:44:10.413Z,56.34
2023-10-07T03:46:38.945Z,56.43
2023-10-07T03:49:06.717Z,56.42
2023-10-07T03:51:36.795Z,56.32
2023-10-07T03:54:05.133Z,56.42
2023-10-07T03:56:33.067Z,56.51
2023-10-07T03:59:01.016Z,56.93
2023-10-07T04:01:28.789Z,56.95
2023-10-07T04:03:57.536Z,56.94
2023-10-07T04:06:26.743Z,56.84
2023-10-07T04:08:58.795Z,56.88
2023-10-07T04:11:27.748Z,56.55
2023-10-07T04:13:56.953Z,56.60
2023-10-07T04:16:26.107Z,56.39
2023-10-07T04:18:58.755Z,56.61
2023-10-07T04:21:26.871Z,56.74
2023-10-07T04:23:57.235Z,56.87
2023-10-07T04:26:25.936Z,56.51
2023-10-07T04:28:57.329Z,57.01
2023-10-07T04:31:25.643Z,56.66
2023-10-07T04:33:53.596Z,56.48
2023-10-07T04:36:21.596Z,56.56
2023-10-07T04:38:49.760Z,56.43
2023-10-07T04:41:17.759Z,56.88
2023-10-07T04:43:45.659Z,56.81
2023-10-07T04:46:13.559Z,57.31
2023-10-07T04:48:41.320Z,57.57
2023-10-07T04:51:09.069Z,57.55
2023-10-07T04:53:36.755Z,57.25
2023-10-07T04:56:05.352Z,56.75
2023-10-07T04:58:33.889Z,56.81
2023-10-07T05:01:02.025Z,56.86
2023-10-07T05:03:29.888Z,56.45
2023-10-07T05:05:57.568Z,56.65
2023-10-07T05:08:25.797Z,56.96
2023-10-07T05:10:53.847Z,56.91
2023-10-07T05:13:23.030Z,57.24
2023-10-07T05:15:51.246Z,57.01
2023-10-07T05:18:19.174Z,56.84
2023-10-07T05:20:47.298Z,56.99
2023-10-07T05:23:16.015Z,56.68
2023-10-07T05:25:44.127Z,56.86
2023-10-07T05:28:12.493Z,56.95
2023-10-07T05:30:41.551Z,57.15
2023-10-07T05:33:09.385Z,57.32
2023-10-07T05:35:37.506Z,56.94
2023-10-07T05:38:06.206Z,57.06
2023-10-07T05:40:34.120Z,56.82
2023-10-07T05:43:01.816Z,56.92
2023-10-07T05:45:29.510Z,57.18
2023-10-07T05:47:57.397Z,57.54
2023-10-07T05:50:25.587Z,57.34
2023-10-07T05:52:54.557Z,57.13
2023-10-07T05:55:22.338Z,56.87
2023-10-07T05:57:50.054Z,57.31
2023-10-07T06:00:18.106Z,57.01
2023-10-07T06:02:46.052Z,56.94
2023-10-07T06:05:14.012Z,57.02
2023-10-07T06:07:41.807Z,57.21
2023-10-07T06:10:12.583Z,57.61
2023-10-07T06:12:40.250Z,57.64
2023-10-07T06:15:08.791Z,57.67
2023-10-07T06:17:39.307Z,57.59
2023-10-07T06:20:08.253Z,57.65
2023-10-07T06:22:36.297Z,57.86
2023-10-07T06:25:04.099Z,57.84
2023-10-07T06:27:31.966Z,58.17
2023-10-07T06:30:00.550Z,58.17
2023-10-07T06:32:28.292Z,58.13
2023-10-07T06:34:56.185Z,58.75
2023-10-07T06:37:24.406Z,58.95
2023-10-07T06:39:52.510Z,58.86
2023-10-07T06:42:20.403Z,59.06
2023-10-07T06:44:48.200Z,59.24
2023-10-07T06:47:15.943Z,59.07
2023-10-07T06:49:43.721Z,59.11
2023-10-07T06:52:11.485Z,59.20
2023-10-07T06:54:40.246Z,59.38
2023-10-07T06:57:12.648Z,59.92
2023-10-07T06:59:40.542Z,59.65
2023-10-07T07:02:08.393Z,59.45
2023-10-07T07:04:36.270Z,59.90
2023-10-07T07:07:04.181Z,60.39
2023-10-07T07:09:31.951Z,60.45
2023-10-07T07:12:01.660Z,60.49
2023-10-07T07:14:30.009Z,60.72
2023-10-07T07:16:59.111Z,60.60
2023-10-07T07:19:26.859Z,60.26
2023-10-07T07:22:00.701Z,60.18
2023-10-07T07:24:29.768Z,60.53
2023-10-07T07:26:57.495Z,60.52
2023-10-07T07:29:25.304Z,60.29
2023-10-07T07:31:53.231Z,60.19
2023-10-07T07:34:21.491Z,59.91
2023-10-07T07:36:49.556Z,60.10
2023-10-07T07:39:17.299Z,60.02
2023-10-07T07:41:45.040Z,60.29
2023-10-07T07:44:13.441Z,60.55
2023-10-07T07:46:41.761Z,60.53
2023-10-07T07:49:09.562Z,60.74
2023-10-07T07:51:37.830Z,60.82
2023-10-07T07:54:07.073Z,60.50
2023-10-07T07:56:35.847Z,60.33
2023-10-07T07:59:06.668Z,60.09
2023-10-07T08:01:34.463Z,59.71
2023-10-07T08:04:02.369Z,59.51
2023-10-07T08:06:30.827Z,59.27
2023-10-07T08:08:58.776Z,59.32
2023-10-07T08:11:26.535Z,58.98
2023-10-07T08:13:53.971Z,58.49
2023-10-07T08:16:21.654Z,58.20
2023-10-07T08:18:50.111Z,58.17
2023-10-07T08:21:17.849Z,58.33
2023-10-07T08:23:45.665Z,57.91
2023-10-07T08:26:13.118Z,57.62
2023-10-07T08:28:46.953Z,57.40
2023-10-07T08:31:16.079Z,57.14
2023-10-07T08:33:43.817Z,56.82
2023-10-07T08:36:11.515Z,56.46
2023-10-07T08:38:39.338Z,56.32
2023-10-07T08:41:07.013Z,56.07
2023-10-07T08:43:37.533Z,56.05
2023-10-07T08:46:06.332Z,56.18
2023-10-07T08:48:34.730Z,55.92
2023-10-07T08:51:03.416Z,56.18
2023-10-07T08:53:31.520Z,56.49
2023-10-07T08:55:59.076Z,56.49
2023-10-07T08:58:30.632Z,55.71
2023-10-07T09:00:58.664Z,56.47
2023-10-07T09:03:26.947Z,56.68
2023-10-07T09:05:54.514Z,55.98
2023-10-07T09:08:21.951Z,55.91
2023-10-07T09:10:51.918Z,56.37
2023-10-07T09:13:19.315Z,55.03
2023-10-07T09:15:52.227Z,54.06
2023-10-07T09:18:24.660Z,53.66
2023-10-07T09:20:52.712Z,53.06
2023-10-07T09:23:20.493Z,52.22
2023-10-07T09:25:48.828Z,50.24
2023-10-07T09:28:17.656Z,49.86
2023-10-07T09:30:45.228Z,50.42
2023-10-07T09:33:16.184Z,48.58
2023-10-07T09:35:52.045Z,48.06
2023-10-07T09:38:19.425Z,49.22
2023-10-07T09:40:47.418Z,47.58
2023-10-07T09:43:15.231Z,47.88
2023-10-07T09:45:44.617Z,48.14
2023-10-07T09:48:12.133Z,48.06
2023-10-07T09:50:45.972Z,46.44
2023-10-07T09:53:50.888Z,46.40
2023-10-07T09:57:00.894Z,49.09
2023-10-07T10:00:03.854Z,47.49
2023-10-07T10:02:49.791Z,46.83
2023-10-07T10:05:33.928Z,46.38
2023-10-07T10:08:10.124Z,45.93
2023-10-07T10:10:41.124Z,46.00
2023-10-07T10:13:08.616Z,46.45
2023-10-07T10:15:38.461Z,42.95
2023-10-07T10:18:08.486Z,42.93
2023-10-07T10:20:37.759Z,42.08
2023-10-07T10:23:05.212Z,41.85
2023-10-07T10:25:33.041Z,41.46
2023-10-07T10:28:01.229Z,42.74
2023-10-07T10:30:28.846Z,42.88
2023-10-07T10:33:02.047Z,43.53
2023-10-07T10:35:31.255Z,42.30
2023-10-07T10:37:59.159Z,43.09
2023-10-07T10:40:27.059Z,41.19
2023-10-07T10:42:54.816Z,39.90
2023-10-07T10:45:25.145Z,38.80
2023-10-07T10:47:55.047Z,38.69
2023-10-07T10:50:24.980Z,39.56
2023-10-07T10:52:56.818Z,36.38
2023-10-07T10:55:25.148Z,33.57
2023-10-07T10:57:53.754Z,30.75
2023-10-07T11:00:21.881Z,32.25
2023-10-07T11:02:52.666Z,28.13
2023-10-07T11:05:20.966Z,27.87
2023-10-07T11:07:50.506Z,25.05
2023-10-07T11:10:19.955Z,25.68
2023-10-07T11:12:50.021Z,22.52
2023-10-07T11:15:18.016Z,21.48
2023-10-07T11:18:01.879Z,20.40
2023-10-07T11:20:36.047Z,19.28
2023-10-07T11:23:04.101Z,19.14
2023-10-07T11:25:31.509Z,19.21
2023-10-07T11:27:58.904Z,18.50
2023-10-07T11:30:26.695Z,17.83
2023-10-07T11:32:54.459Z,17.27
2023-10-07T11:35:24.366Z,16.64
2023-10-07T11:37:53.633Z,16.83
2023-10-07T11:40:21.188Z,15.65
2023-10-07T11:42:48.739Z,15.90
2023-10-07T11:45:16.314Z,14.75
2023-10-07T11:47:44.858Z,14.52
2023-10-07T11:50:12.252Z,14.70
2023-10-07T11:52:39.733Z,14.51
2023-10-07T11:55:07.366Z,14.45
2023-10-07T11:57:35.535Z,14.61
2023-10-07T12:00:23.285Z,15.40
2023-10-07T12:02:52.068Z,15.33
2023-10-07T12:05:22.291Z,15.42
2023-10-07T12:07:50.912Z,14.80
2023-10-07T12:10:19.079Z,15.01
2023-10-07T12:12:47.643Z,14.88
2023-10-07T12:15:15.316Z,14.80
2023-10-07T12:17:46.534Z,14.98
2023-10-07T12:20:14.294Z,14.75
2023-10-07T12:22:44.313Z,15.06
2023-10-07T12:25:12.347Z,14.92
2023-10-07T12:27:40.962Z,15.54
2023-10-07T12:30:09.671Z,15.23
2023-10-07T12:32:37.119Z,15.39
2023-10-07T12:35:05.545Z,15.88
2023-10-07T12:37:35.474Z,15.34
2023-10-07T12:40:04.043Z,14.82
2023-10-07T12:42:33.126Z,15.89
2023-10-07T12:45:00.900Z,16.78
2023-10-07T12:47:30.866Z,16.29
2023-10-07T12:49:58.692Z,15.60
2023-10-07T12:52:26.179Z,16.75
2023-10-07T12:54:54.300Z,17.00
2023-10-07T12:57:21.679Z,15.80
2023-10-07T12:59:49.409Z,16.24
2023-10-07T13:02:16.803Z,15.95
2023-10-07T13:04:45.280Z,15.44
2023-10-07T13:07:13.229Z,15.52
2023-10-07T13:09:42.625Z,16.04
2023-10-07T13:12:11.518Z,16.17
2023-10-07T13:14:39.518Z,15.23
2023-10-07T13:17:06.923Z,15.37
2023-10-07T13:19:35.201Z,15.61
2023-10-07T13:22:03.557Z,15.74
2023-10-07T13:24:31.188Z,15.96
2023-10-07T13:26:58.508Z,15.74
2023-10-07T13:29:28.701Z,15.18
2023-10-07T13:31:56.093Z,15.38
2023-10-07T13:34:23.665Z,16.06
2023-10-07T13:36:51.032Z,15.08
2023-10-07T13:39:18.366Z,16.00
2023-10-07T13:41:48.527Z,15.60
2023-10-07T13:44:17.981Z,15.57
2023-10-07T13:46:46.983Z,17.38
2023-10-07T13:49:16.666Z,17.62
2023-10-07T13:51:46.439Z,17.05
2023-10-07T13:54:15.236Z,18.10
2023-10-07T13:56:43.202Z,18.81
2023-10-07T13:59:10.980Z,17.49
2023-10-07T14:01:38.802Z,17.57
2023-10-07T14:04:07.026Z,17.05
2023-10-07T14:06:35.082Z,17.73
2023-10-07T14:09:03.110Z,16.28
2023-10-07T14:11:31.040Z,16.03
2023-10-07T14:13:58.807Z,17.44
2023-10-07T14:16:26.620Z,17.10
2023-10-07T14:18:54.714Z,16.87
2023-10-07T14:21:22.625Z,16.66
2023-10-07T14:23:50.463Z,16.33
2023-10-07T14:26:18.258Z,16.31
2023-10-07T14:28:46.494Z,17.77
2023-10-07T14:31:16.888Z,19.31
2023-10-07T14:33:45.358Z,16.00
2023-10-07T14:36:13.302Z,16.30
2023-10-07T14:38:42.636Z,16.98
2023-10-07T14:41:11.225Z,19.43
2023-10-07T14:43:39.259Z,20.36
2023-10-07T14:46:08.126Z,19.36
2023-10-07T14:48:35.975Z,20.94
2023-10-07T14:51:08.042Z,20.36
2023-10-07T14:53:36.055Z,20.49
2023-10-07T14:56:11.620Z,21.47
2023-10-07T14:58:39.326Z,21.87
2023-10-07T15:05:07.851Z,23.31
2023-10-07T15:07:35.592Z,24.24
2023-10-07T15:10:03.421Z,24.56
2023-10-07T15:12:30.961Z,24.47
2023-10-07T15:14:58.301Z,25.10
2023-10-07T15:17:26.049Z,25.97
2023-10-07T15:19:54.254Z,26.21
2023-10-07T15:22:22.131Z,26.00
2023-10-07T15:24:49.797Z,25.12
2023-10-07T15:27:17.754Z,25.91
2023-10-07T15:29:45.845Z,26.86
2023-10-07T15:32:13.616Z,26.80
2023-10-07T15:34:41.591Z,27.61
2023-10-07T15:37:09.629Z,27.78
2023-10-07T15:39:37.981Z,27.99
2023-10-07T15:42:05.441Z,29.34
2023-10-07T15:44:33.027Z,29.56
2023-10-07T15:47:00.969Z,30.80
2023-10-07T15:49:35.900Z,30.84
2023-10-07T15:52:04.352Z,30.77
2023-10-07T15:54:31.715Z,31.12
2023-10-07T15:56:59.256Z,31.93
2023-10-07T15:59:26.706Z,31.40
2023-10-07T16:01:54.207Z,31.42
2023-10-07T16:04:21.867Z,31.83
2023-10-07T16:06:49.348Z,32.42
2023-10-07T16:09:17.116Z,32.35
2023-10-07T16:11:47.746Z,31.62
2023-10-07T16:14:16.226Z,31.57
2023-10-07T16:16:44.088Z,31.70
2023-10-07T16:19:12.038Z,31.90
2023-10-07T16:21:42.119Z,32.69
2023-10-07T16:24:10.093Z,33.38
2023-10-07T16:26:39.024Z,33.12
2023-10-07T16:29:08.884Z,34.04
2023-10-07T16:31:39.710Z,33.74
2023-10-07T16:34:07.300Z,34.07
2023-10-07T16:36:34.854Z,33.48
2023-10-07T16:39:04.298Z,33.75
2023-10-07T16:41:31.871Z,33.72
2023-10-07T16:43:59.713Z,34.21
2023-10-07T16:46:31.087Z,34.41
2023-10-07T16:48:59.197Z,34.52
2023-10-07T16:51:26.890Z,34.74
2023-10-07T16:53:54.421Z,34.81
2023-10-07T16:56:24.524Z,35.31
2023-10-07T16:58:52.533Z,34.99
2023-10-07T17:01:21.684Z,35.01
2023-10-07T17:03:49.517Z,35.62
2023-10-07T17:06:20.157Z,36.34
2023-10-07T17:08:53.460Z,36.39
2023-10-07T17:11:21.549Z,36.06
2023-10-07T17:13:50.058Z,35.64
2023-10-07T17:16:20.920Z,36.01
2023-10-07T17:18:48.285Z,36.96
2023-10-07T17:21:15.790Z,37.12
2023-10-07T17:23:43.293Z,36.52
2023-10-07T17:26:11.086Z,37.05
2023-10-07T17:28:38.581Z,37.12
2023-10-07T17:31:12.290Z,37.42
2023-10-07T17:33:39.951Z,36.99
2023-10-07T17:36:08.735Z,37.15
2023-10-07T17:38:37.633Z,37.86
2023-10-07T17:41:05.177Z,37.98
2023-10-07T17:43:33.044Z,36.84
2023-10-07T17:46:00.874Z,37.79
2023-10-07T17:48:28.516Z,38.88
2023-10-07T17:50:55.984Z,38.51
2023-10-07T17:53:23.527Z,38.77
2023-10-07T17:55:51.916Z,39.47
2023-10-07T17:58:25.257Z,40.01
2023-10-07T18:00:53.247Z,40.07
2023-10-07T18:03:20.914Z,39.90
2023-10-07T18:05:51.138Z,39.34
2023-10-07T18:08:21.252Z,39.12
2023-10-07T18:10:52.096Z,39.30
2023-10-07T18:13:19.650Z,39.58
2023-10-07T18:15:47.113Z,40.27
2023-10-07T18:18:15.224Z,39.93
2023-10-07T18:20:42.602Z,39.56
2023-10-07T18:23:10.211Z,39.45
2023-10-07T18:25:37.678Z,40.00
2023-10-07T18:28:05.325Z,40.11
2023-10-07T18:30:32.791Z,40.40
2023-10-07T18:33:00.705Z,40.43
2023-10-07T18:35:28.138Z,40.16
2023-10-07T18:37:55.567Z,40.45
2023-10-07T18:40:22.949Z,40.56
2023-10-07T18:42:50.408Z,40.98
2023-10-07T18:45:17.971Z,41.89
2023-10-07T18:47:45.393Z,42.00
2023-10-07T18:50:13.130Z,40.97
2023-10-07T18:52:40.901Z,41.35
2023-10-07T18:55:09.272Z,42.33
2023-10-07T18:57:40.569Z,42.29
2023-10-07T19:00:09.688Z,41.56
2023-10-07T19:02:37.217Z,41.55
2023-10-07T19:05:05.331Z,41.42
2023-10-07T19:07:32.729Z,41.63
2023-10-07T19:10:00.158Z,41.33
2023-10-07T19:12:27.758Z,40.91
2023-10-07T19:14:55.146Z,40.89
2023-10-07T19:17:22.591Z,41.09
2023-10-07T19:19:50.120Z,41.14
2023-10-07T19:22:17.590Z,41.18
2023-10-07T19:24:45.009Z,41.23
2023-10-07T19:27:12.409Z,41.75
2023-10-07T19:29:39.973Z,41.56
2023-10-07T19:32:07.452Z,41.66
2023-10-07T19:34:35.050Z,41.15
2023-10-07T19:37:02.328Z,41.33
2023-10-07T19:39:42.424Z,41.21
2023-10-07T19:42:12.335Z,41.28
2023-10-07T19:44:40.010Z,41.05
2023-10-07T19:47:07.687Z,41.51
2023-10-07T19:49:37.828Z,41.87
2023-10-07T19:52:06.025Z,41.71
2023-10-07T19:54:33.756Z,41.64
2023-10-07T19:57:01.141Z,41.36
2023-10-07T19:59:28.519Z,41.32
2023-10-07T20:01:55.967Z,41.49
2023-10-07T20:04:23.573Z,41.23
2023-10-07T20:06:50.941Z,41.32
2023-10-07T20:09:18.261Z,40.97
2023-10-07T20:11:48.277Z,41.14
2023-10-07T20:14:16.103Z,41.22
2023-10-07T20:16:43.667Z,41.49
2023-10-07T20:19:11.478Z,41.74
2023-10-07T20:21:39.082Z,42.04
2023-10-07T20:24:07.152Z,42.37
2023-10-07T20:26:34.742Z,41.66
2023-10-07T20:29:02.228Z,41.68
2023-10-07T20:31:29.722Z,41.56
2023-10-07T20:33:57.642Z,41.74
2023-10-07T20:36:25.290Z,41.42
2023-10-07T20:38:53.512Z,41.59
2023-10-07T20:41:20.983Z,41.40
2023-10-07T20:43:48.337Z,41.48
2023-10-07T20:46:15.933Z,41.73
2023-10-07T20:48:43.406Z,41.83
2023-10-07T20:51:13.401Z,41.69
2023-10-07T20:53:43.666Z,41.70
2023-10-07T20:56:13.369Z,41.56
2023-10-07T20:58:42.182Z,41.53
2023-10-07T21:01:21.701Z,41.74
2023-10-07T21:03:54.381Z,41.91
2023-10-07T21:06:23.025Z,42.00
2023-10-07T21:08:53.296Z,41.93
2023-10-07T21:11:21.265Z,41.96
2023-10-07T21:13:48.915Z,42.17
2023-10-07T21:16:16.692Z,42.21
2023-10-07T21:18:44.146Z,42.16
2023-10-07T21:21:13.428Z,41.99
2023-10-07T21:23:44.969Z,41.84
2023-10-07T21:26:20.863Z,41.65
2023-10-07T21:28:54.541Z,42.10
2023-10-07T21:31:22.057Z,42.48
2023-10-07T21:33:49.631Z,42.76
2023-10-07T21:36:17.329Z,42.24
2023-10-07T21:38:45.199Z,42.79
2023-10-07T21:41:13.237Z,42.83
2023-10-07T21:43:40.753Z,43.07
2023-10-07T21:46:08.389Z,43.14
2023-10-07T21:48:35.689Z,42.82
2023-10-07T21:51:11.079Z,43.21
2023-10-07T21:53:38.830Z,43.77
2023-10-07T21:56:12.482Z,43.57
2023-10-07T21:58:40.015Z,43.31
2023-10-07T22:01:07.585Z,43.51
2023-10-07T22:03:41.281Z,43.73
2023-10-07T22:06:08.713Z,43.55
2023-10-07T22:08:36.240Z,43.55
2023-10-07T22:11:03.734Z,43.61
2023-10-07T22:13:31.255Z,43.73
2023-10-07T22:15:58.875Z,43.97
2023-10-07T22:18:27.673Z,44.12
2023-10-07T22:20:55.436Z,44.59
2023-10-07T22:23:24.255Z,43.82
2023-10-07T22:25:52.826Z,43.84
2023-10-07T22:28:21.643Z,44.27
2023-10-07T22:30:50.934Z,44.18
2023-10-07T22:33:22.562Z,44.12
2023-10-07T22:35:52.020Z,44.80
2023-10-07T22:38:20.089Z,44.47
2023-10-07T22:40:50.323Z,44.69
2023-10-07T22:43:18.876Z,44.52
2023-10-07T22:45:48.254Z,44.68
2023-10-07T22:48:24.825Z,44.59
2023-10-07T22:50:55.607Z,44.69
2023-10-07T22:53:24.192Z,44.56
2023-10-07T22:55:51.589Z,44.58
2023-10-07T22:58:20.113Z,44.60
2023-10-07T23:00:51.958Z,44.42
2023-10-07T23:03:20.232Z,44.70
2023-10-07T23:05:49.179Z,44.80
2023-10-07T23:08:17.679Z,44.77
2023-10-07T23:10:45.118Z,45.03
2023-10-07T23:13:12.517Z,44.78
2023-10-07T23:15:40.603Z,44.88
2023-10-07T23:18:08.238Z,44.98
2023-10-07T23:20:35.976Z,45.03
2023-10-07T23:23:03.396Z,45.00
2023-10-07T23:25:32.145Z,45.19
2023-10-07T23:27:59.483Z,45.23
2023-10-07T23:30:27.076Z,45.32
2023-10-07T23:32:56.815Z,44.93
2023-10-07T23:35:24.592Z,45.45
2023-10-07T23:37:52.967Z,45.17
2023-10-07T23:40:21.476Z,45.40
2023-10-07T23:42:48.796Z,45.81
2023-10-07T23:45:16.631Z,45.58
2023-10-07T23:47:44.094Z,45.82
2023-10-07T23:50:11.844Z,45.90
2023-10-07T23:52:39.229Z,45.89
2023-10-07T23:55:07.170Z,45.73
2023-10-07T23:57:34.541Z,45.96
